createdAt,value
2022-11-19T00:00:36.980Z,0.00
2022-11-19T00:01:36.991Z,0.00
2022-11-19T00:02:36.937Z,0.00
2022-11-19T00:03:36.922Z,0.00
2022-11-19T00:04:36.940Z,0.00
2022-11-19T00:05:36.967Z,0.00
2022-11-19T00:06:37.006Z,0.00
2022-11-19T00:07:37.051Z,0.00
2022-11-19T00:08:36.906Z,0.00
2022-11-19T00:09:36.904Z,0.00
2022-11-19T00:10:36.895Z,0.00
2022-11-19T00:11:36.969Z,0.00
2022-11-19T00:12:36.898Z,0.00
2022-11-19T00:13:36.874Z,0.00
2022-11-19T00:14:36.860Z,0.00
2022-11-19T00:15:36.904Z,0.00
2022-11-19T00:16:36.904Z,0.00
2022-11-19T00:17:36.889Z,0.00
2022-11-19T00:18:36.876Z,0.00
2022-11-19T00:19:36.878Z,0.00
2022-11-19T00:20:36.842Z,0.00
2022-11-19T00:21:36.819Z,0.00
2022-11-19T00:22:36.832Z,0.00
2022-11-19T00:23:36.824Z,0.00
2022-11-19T00:24:36.812Z,0.00
2022-11-19T00:25:36.847Z,0.00
2022-11-19T00:26:36.855Z,0.00
2022-11-19T00:27:36.799Z,0.00
2022-11-19T00:28:37.505Z,0.00
2022-11-19T00:29:36.780Z,0.00
2022-11-19T00:30:52.160Z,0.00
2022-11-19T00:31:38.872Z,0.00
2022-11-19T00:32:36.775Z,0.00
2022-11-19T00:33:36.751Z,0.00
2022-11-19T00:34:36.744Z,0.00
2022-11-19T00:35:36.787Z,0.00
2022-11-19T00:36:36.740Z,0.00
2022-11-19T00:37:36.763Z,0.00
2022-11-19T00:38:38.578Z,0.00
2022-11-19T00:39:36.750Z,0.00
2022-11-19T00:40:36.730Z,0.00
2022-11-19T00:41:36.749Z,0.00
2022-11-19T00:42:36.755Z,0.00
2022-11-19T00:43:36.706Z,0.00
2022-11-19T00:44:37.587Z,0.00
2022-11-19T00:45:37.686Z,0.00
2022-11-19T00:46:36.699Z,0.00
2022-11-19T00:47:36.655Z,0.00
2022-11-19T00:48:36.661Z,0.00
2022-11-19T00:49:36.663Z,0.00
2022-11-19T00:50:36.649Z,0.00
2022-11-19T00:51:36.668Z,0.00
2022-11-19T00:52:36.680Z,0.00
2022-11-19T00:53:36.680Z,0.00
2022-11-19T00:54:36.611Z,0.00
2022-11-19T00:55:36.627Z,0.00
2022-11-19T00:56:36.600Z,0.00
2022-11-19T00:57:36.616Z,0.00
2022-11-19T00:58:36.608Z,0.00
2022-11-19T00:59:36.707Z,0.00
2022-11-19T01:00:36.593Z,0.00
2022-11-19T01:01:36.672Z,0.00
2022-11-19T01:02:36.570Z,0.00
2022-11-19T01:03:36.571Z,0.00
2022-11-19T01:04:36.603Z,0.00
2022-11-19T01:05:36.543Z,0.00
2022-11-19T01:06:36.563Z,0.00
2022-11-19T01:07:36.593Z,0.00
2022-11-19T01:08:36.584Z,0.00
2022-11-19T01:09:36.535Z,0.00
2022-11-19T01:10:36.586Z,0.00
2022-11-19T01:11:36.509Z,0.00
2022-11-19T01:12:36.509Z,0.00
2022-11-19T01:13:36.522Z,0.00
2022-11-19T01:14:36.543Z,0.00
2022-11-19T01:15:36.632Z,0.00
2022-11-19T01:16:36.498Z,0.00
2022-11-19T01:17:36.459Z,0.00
2022-11-19T01:18:36.479Z,0.00
2022-11-19T01:19:36.519Z,0.00
2022-11-19T01:20:36.514Z,0.00
2022-11-19T01:21:36.515Z,0.00
2022-11-19T01:22:36.478Z,0.00
2022-11-19T01:23:36.477Z,0.00
2022-11-19T01:24:36.441Z,0.00
2022-11-19T01:25:36.453Z,0.00
2022-11-19T01:26:36.459Z,0.00
2022-11-19T01:27:36.393Z,0.00
2022-11-19T01:28:36.437Z,0.00
2022-11-19T01:29:36.452Z,0.00
2022-11-19T01:30:36.463Z,0.00
2022-11-19T01:31:36.400Z,0.00
2022-11-19T01:32:36.540Z,0.00
2022-11-19T01:33:36.387Z,0.00
2022-11-19T01:34:36.369Z,0.00
2022-11-19T01:35:36.377Z,0.00
2022-11-19T01:36:36.360Z,0.00
2022-11-19T01:37:36.430Z,0.00
2022-11-19T01:38:36.384Z,0.00
2022-11-19T01:39:36.360Z,0.00
2022-11-19T01:40:37.057Z,0.00
2022-11-19T01:41:36.309Z,0.00
2022-11-19T01:42:36.393Z,0.00
2022-11-19T01:43:36.431Z,0.00
2022-11-19T01:44:36.302Z,0.00
2022-11-19T01:45:36.334Z,0.00
2022-11-19T01:46:36.320Z,0.00
2022-11-19T01:47:36.285Z,0.00
2022-11-19T01:48:36.353Z,0.00
2022-11-19T01:49:36.264Z,0.00
2022-11-19T01:50:36.304Z,0.00
2022-11-19T01:51:36.273Z,0.00
2022-11-19T01:52:36.290Z,0.00
2022-11-19T01:53:36.246Z,0.00
2022-11-19T01:54:36.360Z,0.00
2022-11-19T01:55:36.259Z,0.00
2022-11-19T01:56:36.273Z,0.00
2022-11-19T01:57:36.259Z,0.00
2022-11-19T01:58:37.236Z,0.00
2022-11-19T01:59:36.225Z,0.00
2022-11-19T02:00:36.193Z,0.00
2022-11-19T02:01:36.279Z,0.00
2022-11-19T02:02:36.188Z,0.00
2022-11-19T02:03:36.271Z,0.00
2022-11-19T02:04:36.198Z,0.00
2022-11-19T02:05:36.307Z,0.00
2022-11-19T02:06:36.184Z,0.00
2022-11-19T02:07:36.239Z,0.00
2022-11-19T02:08:36.192Z,0.00
2022-11-19T02:09:36.152Z,0.00
2022-11-19T02:10:36.203Z,0.00
2022-11-19T02:11:36.171Z,0.00
2022-11-19T02:12:36.113Z,0.00
2022-11-19T02:13:36.139Z,0.00
2022-11-19T02:14:36.123Z,0.00
2022-11-19T02:15:36.112Z,0.00
2022-11-19T02:16:36.138Z,0.00
2022-11-19T02:17:36.075Z,0.00
2022-11-19T02:18:36.096Z,0.00
2022-11-19T02:19:36.090Z,0.00
2022-11-19T02:20:36.107Z,0.00
2022-11-19T02:21:36.110Z,0.00
2022-11-19T02:22:36.084Z,0.00
2022-11-19T02:23:36.048Z,0.00
2022-11-19T02:24:36.073Z,0.00
2022-11-19T02:25:36.042Z,0.00
2022-11-19T02:26:36.061Z,0.00
2022-11-19T02:27:36.069Z,0.00
2022-11-19T02:28:36.044Z,0.00
2022-11-19T02:29:36.035Z,0.00
2022-11-19T02:30:36.037Z,0.00
2022-11-19T02:31:36.082Z,0.00
2022-11-19T02:32:36.032Z,0.00
2022-11-19T02:33:35.987Z,0.00
2022-11-19T02:34:36.016Z,0.00
2022-11-19T02:35:35.976Z,0.00
2022-11-19T02:36:35.994Z,0.00
2022-11-19T02:37:36.021Z,0.00
2022-11-19T02:38:35.992Z,0.00
2022-11-19T02:39:35.960Z,0.00
2022-11-19T02:40:35.947Z,0.00
2022-11-19T02:41:35.948Z,0.00
2022-11-19T02:42:35.948Z,0.00
2022-11-19T02:43:35.971Z,0.00
2022-11-19T02:44:35.959Z,0.00
2022-11-19T02:45:35.941Z,0.00
2022-11-19T02:46:35.922Z,0.00
2022-11-19T02:47:35.949Z,0.00
2022-11-19T02:48:35.962Z,0.00
2022-11-19T02:49:36.013Z,0.00
2022-11-19T02:50:35.905Z,0.00
2022-11-19T02:51:36.881Z,0.00
2022-11-19T02:52:35.916Z,0.00
2022-11-19T02:53:35.909Z,0.00
2022-11-19T02:54:35.899Z,0.00
2022-11-19T02:55:35.868Z,0.00
2022-11-19T02:56:35.890Z,0.00
2022-11-19T02:57:35.884Z,0.00
2022-11-19T02:58:35.848Z,0.00
2022-11-19T02:59:35.854Z,0.00
2022-11-19T03:00:35.973Z,0.00
2022-11-19T03:01:36.632Z,0.00
2022-11-19T03:02:35.910Z,0.00
2022-11-19T03:03:35.797Z,0.00
2022-11-19T03:04:35.816Z,0.00
2022-11-19T03:05:35.864Z,0.00
2022-11-19T03:06:35.804Z,0.00
2022-11-19T03:07:35.883Z,0.00
2022-11-19T03:08:35.773Z,0.00
2022-11-19T03:09:35.788Z,0.00
2022-11-19T03:10:35.770Z,0.00
2022-11-19T03:11:35.887Z,0.00
2022-11-19T03:12:35.788Z,0.00
2022-11-19T03:13:35.781Z,0.00
2022-11-19T03:14:35.756Z,0.00
2022-11-19T03:15:35.793Z,0.00
2022-11-19T03:16:35.796Z,0.00
2022-11-19T03:17:35.760Z,0.00
2022-11-19T03:18:35.743Z,0.00
2022-11-19T03:19:35.736Z,0.00
2022-11-19T03:20:35.727Z,0.00
2022-11-19T03:21:35.748Z,0.00
2022-11-19T03:22:35.770Z,0.00
2022-11-19T03:23:35.690Z,0.00
2022-11-19T03:24:35.721Z,0.00
2022-11-19T03:25:35.689Z,0.00
2022-11-19T03:26:35.673Z,0.00
2022-11-19T03:27:35.790Z,0.00
2022-11-19T03:28:35.679Z,0.00
2022-11-19T03:29:35.673Z,0.00
2022-11-19T03:30:35.653Z,0.00
2022-11-19T03:31:35.655Z,0.00
2022-11-19T03:32:35.651Z,0.00
2022-11-19T03:33:35.707Z,0.00
2022-11-19T03:34:35.653Z,0.00
2022-11-19T03:35:35.620Z,0.00
2022-11-19T03:36:35.627Z,0.00
2022-11-19T03:37:35.635Z,0.00
2022-11-19T03:38:35.739Z,0.00
2022-11-19T03:39:35.601Z,0.00
2022-11-19T03:40:35.609Z,0.00
2022-11-19T03:41:35.621Z,0.00
2022-11-19T03:42:35.614Z,0.00
2022-11-19T03:43:35.603Z,0.00
2022-11-19T03:44:35.685Z,0.00
2022-11-19T03:45:35.597Z,0.00
2022-11-19T03:46:35.577Z,0.00
2022-11-19T03:47:35.550Z,0.00
2022-11-19T03:48:35.537Z,0.00
2022-11-19T03:49:35.719Z,0.00
2022-11-19T03:50:35.552Z,0.00
2022-11-19T03:51:35.562Z,0.00
2022-11-19T03:52:35.544Z,0.00
2022-11-19T03:53:35.542Z,0.00
2022-11-19T03:54:35.545Z,0.00
2022-11-19T03:55:35.652Z,0.00
2022-11-19T03:56:35.549Z,0.00
2022-11-19T03:57:35.493Z,0.00
2022-11-19T03:58:35.521Z,0.00
2022-11-19T03:59:35.509Z,0.00
2022-11-19T04:00:35.519Z,0.00
2022-11-19T04:01:35.563Z,0.00
2022-11-19T04:02:35.500Z,0.00
2022-11-19T04:03:35.433Z,0.00
2022-11-19T04:04:35.483Z,0.00
2022-11-19T04:05:35.443Z,0.00
2022-11-19T04:06:35.564Z,0.00
2022-11-19T04:07:35.486Z,0.00
2022-11-19T04:08:35.450Z,0.00
2022-11-19T04:09:35.440Z,0.00
2022-11-19T04:10:35.442Z,0.00
2022-11-19T04:11:35.530Z,0.00
2022-11-19T04:12:36.431Z,0.00
2022-11-19T04:13:35.441Z,0.00
2022-11-19T04:14:35.433Z,0.00
2022-11-19T04:15:35.399Z,0.00
2022-11-19T04:16:35.390Z,0.00
2022-11-19T04:17:35.418Z,0.00
2022-11-19T04:18:35.383Z,0.00
2022-11-19T04:19:35.365Z,0.00
2022-11-19T04:20:35.379Z,0.00
2022-11-19T04:21:35.358Z,0.00
2022-11-19T04:22:35.370Z,0.00
2022-11-19T04:23:35.361Z,0.00
2022-11-19T04:24:35.334Z,0.00
2022-11-19T04:25:35.344Z,0.00
2022-11-19T04:26:35.306Z,0.00
2022-11-19T04:27:35.316Z,0.00
2022-11-19T04:28:35.354Z,0.00
2022-11-19T04:29:35.306Z,0.00
2022-11-19T04:30:35.302Z,0.00
2022-11-19T04:31:35.296Z,0.00
2022-11-19T04:32:35.281Z,0.00
2022-11-19T04:33:35.378Z,0.00
2022-11-19T04:34:35.287Z,0.00
2022-11-19T04:35:35.253Z,0.00
2022-11-19T04:36:35.266Z,0.00
2022-11-19T04:37:35.230Z,0.00
2022-11-19T04:38:35.269Z,0.00
2022-11-19T04:39:35.285Z,0.00
2022-11-19T04:40:35.242Z,0.00
2022-11-19T04:41:35.231Z,0.00
2022-11-19T04:42:35.238Z,0.00
2022-11-19T04:43:35.220Z,0.00
2022-11-19T04:44:35.241Z,0.00
2022-11-19T04:45:35.222Z,0.00
2022-11-19T04:46:35.201Z,0.00
2022-11-19T04:47:35.194Z,0.00
2022-11-19T04:48:35.950Z,0.00
2022-11-19T04:49:35.200Z,0.00
2022-11-19T04:50:35.280Z,0.00
2022-11-19T04:51:35.189Z,0.00
2022-11-19T04:52:40.346Z,0.00
2022-11-19T04:53:36.134Z,0.00
2022-11-19T04:54:35.165Z,0.00
2022-11-19T04:55:35.212Z,0.00
2022-11-19T04:56:35.116Z,0.00
2022-11-19T04:57:35.168Z,0.00
2022-11-19T04:58:35.125Z,0.00
2022-11-19T04:59:35.102Z,0.00
2022-11-19T05:00:35.140Z,0.00
2022-11-19T05:01:35.196Z,0.00
2022-11-19T05:02:35.118Z,0.00
2022-11-19T05:03:35.095Z,0.00
2022-11-19T05:04:35.103Z,0.00
2022-11-19T05:05:35.070Z,0.00
2022-11-19T05:06:35.078Z,0.00
2022-11-19T05:07:35.132Z,0.00
2022-11-19T05:08:35.101Z,0.00
2022-11-19T05:09:35.077Z,0.00
2022-11-19T05:10:35.101Z,0.00
2022-11-19T05:11:35.053Z,0.00
2022-11-19T05:12:35.043Z,0.00
2022-11-19T05:13:35.066Z,0.00
2022-11-19T05:14:34.997Z,0.00
2022-11-19T05:15:35.057Z,0.00
2022-11-19T05:16:35.004Z,0.00
2022-11-19T05:17:35.069Z,0.00
2022-11-19T05:18:34.961Z,0.00
2022-11-19T05:19:35.019Z,0.00
2022-11-19T05:20:34.966Z,0.00
2022-11-19T05:21:34.946Z,0.00
2022-11-19T05:22:35.058Z,0.00
2022-11-19T05:23:35.061Z,0.00
2022-11-19T05:24:34.950Z,0.00
2022-11-19T05:25:34.951Z,0.00
2022-11-19T05:26:34.963Z,0.00
2022-11-19T05:27:34.970Z,0.00
2022-11-19T05:28:39.044Z,0.00
2022-11-19T05:29:35.893Z,0.00
2022-11-19T05:30:34.935Z,0.00
2022-11-19T05:31:34.923Z,0.00
2022-11-19T05:32:34.931Z,0.00
2022-11-19T05:33:34.968Z,0.00
2022-11-19T05:34:34.895Z,0.00
2022-11-19T05:35:34.876Z,0.00
2022-11-19T05:36:34.916Z,0.00
2022-11-19T05:37:34.882Z,0.00
2022-11-19T05:38:34.886Z,0.00
2022-11-19T05:39:34.989Z,0.00
2022-11-19T05:40:34.854Z,0.00
2022-11-19T05:41:34.827Z,0.00
2022-11-19T05:42:34.824Z,0.00
2022-11-19T05:43:34.851Z,0.00
2022-11-19T05:44:34.797Z,0.00
2022-11-19T05:45:34.947Z,0.00
2022-11-19T05:46:34.826Z,0.00
2022-11-19T05:47:34.799Z,0.00
2022-11-19T05:48:34.799Z,0.00
2022-11-19T05:49:34.820Z,0.00
2022-11-19T05:50:34.820Z,0.00
2022-11-19T05:51:34.763Z,0.00
2022-11-19T05:52:34.814Z,0.00
2022-11-19T05:53:34.757Z,0.00
2022-11-19T05:54:34.793Z,0.00
2022-11-19T05:55:34.771Z,0.00
2022-11-19T05:56:34.838Z,0.00
2022-11-19T05:57:34.750Z,0.00
2022-11-19T05:58:34.735Z,0.00
2022-11-19T05:59:34.714Z,0.00
2022-11-19T06:00:34.697Z,0.00
2022-11-19T06:01:34.745Z,0.00
2022-11-19T06:02:34.841Z,0.00
2022-11-19T06:03:34.752Z,0.00
2022-11-19T06:04:34.674Z,0.00
2022-11-19T06:05:39.814Z,0.00
2022-11-19T06:06:35.707Z,0.00
2022-11-19T06:07:34.752Z,0.00
2022-11-19T06:08:34.739Z,0.00
2022-11-19T06:09:34.703Z,0.00
2022-11-19T06:10:34.673Z,0.00
2022-11-19T06:11:34.654Z,0.00
2022-11-19T06:12:34.673Z,0.00
2022-11-19T06:13:34.667Z,0.00
2022-11-19T06:14:34.630Z,0.00
2022-11-19T06:15:34.626Z,0.00
2022-11-19T06:16:34.629Z,0.00
2022-11-19T06:17:34.757Z,0.00
2022-11-19T06:18:34.633Z,0.00
2022-11-19T06:19:34.604Z,0.00
2022-11-19T06:20:34.581Z,0.00
2022-11-19T06:21:34.628Z,0.00
2022-11-19T06:22:34.586Z,0.00
2022-11-19T06:23:34.652Z,0.00
2022-11-19T06:24:34.604Z,0.00
2022-11-19T06:25:34.587Z,0.00
2022-11-19T06:26:34.530Z,0.00
2022-11-19T06:27:34.555Z,0.00
2022-11-19T06:28:34.571Z,0.00
2022-11-19T06:29:34.529Z,0.00
2022-11-19T06:30:34.547Z,0.00
2022-11-19T06:31:34.515Z,0.00
2022-11-19T06:32:34.493Z,0.00
2022-11-19T06:33:34.534Z,0.00
2022-11-19T06:34:34.527Z,0.00
2022-11-19T06:35:34.525Z,0.00
2022-11-19T06:36:40.265Z,0.00
2022-11-19T06:37:36.501Z,0.00
2022-11-19T06:38:34.486Z,0.00
2022-11-19T06:39:34.497Z,0.00
2022-11-19T06:40:34.459Z,0.00
2022-11-19T06:41:34.464Z,0.00
2022-11-19T06:42:34.491Z,0.00
2022-11-19T06:43:34.445Z,0.00
2022-11-19T06:44:34.483Z,0.00
2022-11-19T06:45:34.594Z,0.00
2022-11-19T06:46:34.452Z,5.62
2022-11-19T06:47:34.456Z,5.62
2022-11-19T06:48:34.400Z,5.62
2022-11-19T06:49:34.392Z,5.62
2022-11-19T06:50:34.552Z,5.62
2022-11-19T06:51:34.394Z,5.62
2022-11-19T06:52:34.418Z,5.62
2022-11-19T06:53:34.407Z,5.62
2022-11-19T06:54:36.678Z,5.62
2022-11-19T06:55:34.383Z,5.62
2022-11-19T06:56:34.369Z,5.62
2022-11-19T06:57:34.385Z,5.62
2022-11-19T06:58:34.333Z,5.62
2022-11-19T06:59:34.352Z,5.62
2022-11-19T07:00:34.326Z,5.62
2022-11-19T07:01:34.380Z,11.25
2022-11-19T07:02:34.447Z,11.25
2022-11-19T07:03:34.318Z,11.25
2022-11-19T07:04:34.345Z,11.25
2022-11-19T07:05:34.268Z,11.25
2022-11-19T07:06:34.340Z,11.25
2022-11-19T07:07:34.344Z,11.25
2022-11-19T07:08:34.297Z,11.25
2022-11-19T07:09:34.277Z,16.88
2022-11-19T07:10:34.269Z,16.88
2022-11-19T07:11:34.303Z,16.88
2022-11-19T07:12:34.300Z,16.88
2022-11-19T07:13:34.254Z,16.88
2022-11-19T07:14:34.272Z,16.88
2022-11-19T07:15:34.249Z,16.88
2022-11-19T07:16:35.032Z,16.88
2022-11-19T07:17:34.231Z,16.88
2022-11-19T07:18:34.261Z,16.88
2022-11-19T07:19:34.209Z,16.88
2022-11-19T07:20:34.198Z,16.88
2022-11-19T07:21:34.206Z,16.88
2022-11-19T07:22:34.189Z,22.50
2022-11-19T07:23:34.309Z,22.50
2022-11-19T07:24:34.157Z,22.50
2022-11-19T07:25:34.150Z,22.50
2022-11-19T07:26:34.188Z,22.50
2022-11-19T07:27:34.148Z,22.50
2022-11-19T07:28:34.200Z,22.50
2022-11-19T07:29:34.241Z,28.12
2022-11-19T07:30:34.124Z,28.12
2022-11-19T07:31:34.131Z,28.12
2022-11-19T07:32:34.119Z,28.12
2022-11-19T07:33:34.149Z,28.12
2022-11-19T07:34:34.213Z,28.12
2022-11-19T07:35:34.087Z,28.12
2022-11-19T07:36:34.097Z,28.12
2022-11-19T07:37:34.104Z,28.12
2022-11-19T07:38:36.924Z,28.12
2022-11-19T07:39:34.105Z,33.75
2022-11-19T07:40:34.152Z,33.75
2022-11-19T07:41:34.055Z,33.75
2022-11-19T07:42:34.054Z,33.75
2022-11-19T07:43:34.081Z,33.75
2022-11-19T07:44:34.059Z,39.38
2022-11-19T07:45:34.161Z,39.38
2022-11-19T07:46:34.024Z,39.38
2022-11-19T07:47:34.052Z,39.38
2022-11-19T07:48:34.042Z,45.00
2022-11-19T07:49:34.010Z,45.00
2022-11-19T07:50:34.011Z,45.00
2022-11-19T07:51:34.152Z,45.00
2022-11-19T07:52:34.002Z,45.00
2022-11-19T07:53:33.966Z,45.00
2022-11-19T07:54:34.011Z,45.00
2022-11-19T07:55:33.980Z,45.00
2022-11-19T07:56:34.166Z,45.00
2022-11-19T07:57:33.980Z,50.62
2022-11-19T07:58:33.964Z,50.62
2022-11-19T07:59:33.931Z,50.62
2022-11-19T08:00:33.949Z,50.62
2022-11-19T08:01:33.992Z,50.62
2022-11-19T08:02:33.957Z,50.62
2022-11-19T08:03:33.957Z,56.25
2022-11-19T08:04:33.916Z,56.25
2022-11-19T08:05:33.927Z,56.25
2022-11-19T08:06:33.889Z,56.25
2022-11-19T08:07:33.972Z,61.88
2022-11-19T08:08:33.894Z,61.88
2022-11-19T08:09:33.900Z,67.50
2022-11-19T08:10:33.892Z,73.12
2022-11-19T08:11:33.861Z,84.38
2022-11-19T08:12:33.858Z,90.00
2022-11-19T08:13:33.929Z,95.62
2022-11-19T08:14:33.889Z,101.25
2022-11-19T08:15:33.867Z,101.25
2022-11-19T08:16:33.849Z,101.25
2022-11-19T08:17:33.867Z,101.25
2022-11-19T08:18:33.898Z,106.88
2022-11-19T08:19:33.816Z,106.88
2022-11-19T08:20:33.815Z,112.50
2022-11-19T08:21:33.829Z,118.12
2022-11-19T08:22:33.902Z,123.75
2022-11-19T08:23:33.779Z,129.38
2022-11-19T08:24:33.912Z,135.00
2022-11-19T08:25:33.795Z,140.62
2022-11-19T08:26:33.758Z,146.25
2022-11-19T08:27:33.777Z,151.88
2022-11-19T08:28:33.785Z,163.12
2022-11-19T08:29:33.777Z,174.38
2022-11-19T08:30:33.791Z,185.62
2022-11-19T08:31:33.769Z,191.25
2022-11-19T08:32:33.763Z,202.50
2022-11-19T08:33:33.766Z,213.75
2022-11-19T08:34:33.748Z,219.38
2022-11-19T08:35:33.763Z,225.00
2022-11-19T08:36:33.766Z,236.25
2022-11-19T08:37:33.714Z,236.25
2022-11-19T08:38:38.482Z,236.25
2022-11-19T08:39:34.722Z,230.62
2022-11-19T08:40:33.760Z,225.00
2022-11-19T08:41:33.693Z,219.38
2022-11-19T08:42:33.683Z,208.12
2022-11-19T08:43:33.674Z,202.50
2022-11-19T08:44:33.673Z,196.88
2022-11-19T08:45:33.659Z,191.25
2022-11-19T08:46:33.685Z,191.25
2022-11-19T08:47:33.668Z,185.62
2022-11-19T08:48:33.699Z,180.00
2022-11-19T08:49:33.645Z,180.00
2022-11-19T08:50:33.633Z,180.00
2022-11-19T08:51:33.674Z,180.00
2022-11-19T08:52:33.681Z,180.00
2022-11-19T08:53:33.638Z,180.00
2022-11-19T08:54:33.615Z,185.62
2022-11-19T08:55:33.640Z,191.25
2022-11-19T08:56:33.619Z,191.25
2022-11-19T08:57:33.664Z,196.88
2022-11-19T08:58:33.631Z,202.50
2022-11-19T08:59:33.628Z,213.75
2022-11-19T09:00:33.645Z,213.75
2022-11-19T09:01:33.625Z,225.00
2022-11-19T09:02:33.705Z,230.62
2022-11-19T09:03:33.581Z,241.88
2022-11-19T09:04:33.605Z,253.12
2022-11-19T09:05:33.560Z,264.38
2022-11-19T09:06:33.566Z,275.62
2022-11-19T09:07:33.594Z,286.88
2022-11-19T09:08:33.579Z,298.12
2022-11-19T09:09:33.541Z,309.38
2022-11-19T09:10:33.509Z,309.38
2022-11-19T09:11:36.231Z,315.00
2022-11-19T09:12:33.534Z,320.62
2022-11-19T09:13:33.621Z,326.25
2022-11-19T09:14:33.495Z,331.88
2022-11-19T09:15:33.507Z,331.88
2022-11-19T09:16:33.542Z,331.88
2022-11-19T09:17:33.480Z,320.62
2022-11-19T09:18:33.532Z,320.62
2022-11-19T09:19:33.493Z,303.75
2022-11-19T09:20:33.507Z,292.50
2022-11-19T09:21:33.487Z,286.88
2022-11-19T09:22:33.453Z,281.25
2022-11-19T09:23:33.481Z,275.62
2022-11-19T09:24:33.591Z,275.62
2022-11-19T09:25:33.445Z,270.00
2022-11-19T09:26:33.467Z,264.38
2022-11-19T09:27:33.481Z,253.12
2022-11-19T09:28:33.448Z,247.50
2022-11-19T09:29:33.410Z,236.25
2022-11-19T09:30:33.550Z,230.62
2022-11-19T09:31:33.394Z,230.62
2022-11-19T09:32:33.405Z,230.62
2022-11-19T09:33:33.398Z,236.25
2022-11-19T09:34:33.394Z,247.50
2022-11-19T09:35:33.582Z,247.50
2022-11-19T09:36:33.402Z,253.12
2022-11-19T09:37:33.352Z,264.38
2022-11-19T09:38:33.364Z,275.62
2022-11-19T09:39:33.365Z,275.62
2022-11-19T09:40:33.352Z,281.25
2022-11-19T09:41:33.378Z,286.88
2022-11-19T09:42:33.340Z,292.50
2022-11-19T09:43:33.341Z,303.75
2022-11-19T09:44:33.353Z,320.62
2022-11-19T09:45:33.323Z,331.88
2022-11-19T09:46:33.344Z,337.50
2022-11-19T09:47:33.297Z,348.75
2022-11-19T09:48:33.288Z,354.38
2022-11-19T09:49:33.298Z,360.00
2022-11-19T09:50:33.309Z,382.50
2022-11-19T09:51:33.263Z,393.75
2022-11-19T09:52:33.399Z,382.50
2022-11-19T09:53:33.295Z,393.75
2022-11-19T09:54:33.275Z,416.25
2022-11-19T09:55:33.267Z,466.88
2022-11-19T09:56:33.260Z,450.00
2022-11-19T09:57:33.376Z,444.38
2022-11-19T09:58:33.247Z,433.12
2022-11-19T09:59:33.231Z,438.75
2022-11-19T10:00:33.222Z,444.38
2022-11-19T10:01:33.258Z,461.25
2022-11-19T10:02:33.324Z,472.50
2022-11-19T10:03:34.077Z,478.12
2022-11-19T10:04:35.041Z,483.75
2022-11-19T10:05:33.216Z,489.38
2022-11-19T10:06:34.183Z,483.75
2022-11-19T10:07:33.220Z,495.00
2022-11-19T10:08:33.210Z,579.38
2022-11-19T10:09:33.219Z,731.25
2022-11-19T10:10:33.164Z,748.12
2022-11-19T10:11:33.159Z,573.75
2022-11-19T10:12:33.164Z,579.38
2022-11-19T10:13:33.177Z,585.00
2022-11-19T10:14:33.186Z,753.75
2022-11-19T10:15:37.449Z,720.00
2022-11-19T10:16:34.120Z,551.25
2022-11-19T10:17:33.149Z,472.50
2022-11-19T10:18:33.109Z,455.62
2022-11-19T10:19:33.182Z,472.50
2022-11-19T10:20:33.108Z,506.25
2022-11-19T10:21:33.098Z,534.38
2022-11-19T10:22:34.129Z,568.12
2022-11-19T10:23:33.125Z,579.38
2022-11-19T10:24:33.084Z,607.50
2022-11-19T10:25:33.202Z,607.50
2022-11-19T10:26:33.110Z,545.62
2022-11-19T10:27:33.081Z,691.88
2022-11-19T10:28:33.148Z,686.25
2022-11-19T10:29:33.088Z,635.62
2022-11-19T10:30:33.209Z,652.50
2022-11-19T10:31:33.062Z,776.25
2022-11-19T10:32:33.071Z,967.50
2022-11-19T10:33:33.070Z,978.75
2022-11-19T10:34:33.195Z,950.62
2022-11-19T10:35:33.050Z,781.88
2022-11-19T10:36:33.096Z,916.88
2022-11-19T10:37:33.026Z,855.00
2022-11-19T10:38:33.020Z,708.75
2022-11-19T10:39:33.064Z,663.75
2022-11-19T10:40:33.014Z,680.62
2022-11-19T10:41:33.107Z,770.62
2022-11-19T10:42:33.007Z,613.12
2022-11-19T10:43:33.028Z,568.12
2022-11-19T10:44:32.998Z,556.88
2022-11-19T10:45:33.003Z,551.25
2022-11-19T10:46:33.025Z,528.75
2022-11-19T10:47:33.035Z,506.25
2022-11-19T10:48:33.027Z,495.00
2022-11-19T10:49:33.023Z,483.75
2022-11-19T10:50:32.980Z,461.25
2022-11-19T10:51:32.996Z,433.12
2022-11-19T10:52:33.043Z,416.25
2022-11-19T10:53:32.959Z,405.00
2022-11-19T10:54:32.968Z,399.38
2022-11-19T10:55:32.941Z,393.75
2022-11-19T10:56:32.917Z,393.75
2022-11-19T10:57:32.923Z,393.75
2022-11-19T10:58:33.083Z,382.50
2022-11-19T10:59:32.910Z,365.62
2022-11-19T11:00:32.918Z,354.38
2022-11-19T11:01:32.997Z,348.75
2022-11-19T11:02:32.945Z,337.50
2022-11-19T11:03:32.977Z,320.62
2022-11-19T11:04:32.918Z,315.00
2022-11-19T11:05:32.922Z,303.75
2022-11-19T11:06:32.887Z,298.12
2022-11-19T11:07:32.933Z,281.25
2022-11-19T11:08:32.828Z,281.25
2022-11-19T11:09:33.100Z,275.62
2022-11-19T11:10:32.853Z,264.38
2022-11-19T11:11:32.889Z,258.75
2022-11-19T11:12:32.855Z,253.12
2022-11-19T11:13:32.866Z,247.50
2022-11-19T11:14:32.868Z,247.50
2022-11-19T11:15:32.815Z,247.50
2022-11-19T11:16:37.638Z,241.88
2022-11-19T11:17:33.818Z,241.88
2022-11-19T11:18:32.846Z,236.25
2022-11-19T11:19:32.803Z,241.88
2022-11-19T11:20:32.885Z,236.25
2022-11-19T11:21:32.826Z,230.62
2022-11-19T11:22:32.784Z,225.00
2022-11-19T11:23:32.798Z,219.38
2022-11-19T11:24:32.780Z,219.38
2022-11-19T11:25:33.112Z,219.38
2022-11-19T11:26:32.758Z,219.38
2022-11-19T11:27:32.793Z,213.75
2022-11-19T11:28:32.758Z,208.12
2022-11-19T11:29:32.735Z,202.50
2022-11-19T11:30:32.726Z,196.88
2022-11-19T11:31:32.755Z,196.88
2022-11-19T11:32:32.748Z,196.88
2022-11-19T11:33:32.761Z,202.50
2022-11-19T11:34:32.687Z,208.12
2022-11-19T11:35:32.700Z,219.38
2022-11-19T11:36:32.820Z,225.00
2022-11-19T11:37:32.726Z,230.62
2022-11-19T11:38:32.685Z,253.12
2022-11-19T11:39:32.706Z,281.25
2022-11-19T11:40:32.704Z,309.38
2022-11-19T11:42:34.770Z,337.50
2022-11-19T11:43:32.693Z,360.00
2022-11-19T11:44:32.672Z,371.25
2022-11-19T11:45:32.632Z,376.88
2022-11-19T11:46:32.644Z,371.25
2022-11-19T11:47:32.654Z,371.25
2022-11-19T11:48:32.651Z,365.62
2022-11-19T11:49:32.679Z,354.38
2022-11-19T11:50:33.561Z,348.75
2022-11-19T11:51:32.651Z,348.75
2022-11-19T11:52:32.583Z,343.12
2022-11-19T11:53:32.595Z,337.50
2022-11-19T11:54:32.593Z,337.50
2022-11-19T11:55:32.651Z,354.38
2022-11-19T11:56:33.608Z,360.00
2022-11-19T11:57:32.586Z,365.62
2022-11-19T11:58:32.637Z,393.75
2022-11-19T11:59:32.612Z,410.62
2022-11-19T12:00:32.646Z,427.50
2022-11-19T12:01:32.529Z,416.25
2022-11-19T12:02:32.809Z,433.12
2022-11-19T12:03:32.549Z,433.12
2022-11-19T12:04:32.554Z,410.62
2022-11-19T12:05:32.569Z,427.50
2022-11-19T12:06:32.575Z,421.88
2022-11-19T12:07:32.552Z,427.50
2022-11-19T12:08:32.637Z,438.75
2022-11-19T12:09:32.559Z,405.00
2022-11-19T12:10:32.574Z,388.12
2022-11-19T12:11:32.556Z,360.00
2022-11-19T12:12:32.546Z,348.75
2022-11-19T12:13:32.540Z,315.00
2022-11-19T12:14:32.534Z,320.62
2022-11-19T12:15:32.527Z,331.88
2022-11-19T12:16:32.544Z,433.12
2022-11-19T12:17:32.501Z,438.75
2022-11-19T12:18:32.491Z,331.88
2022-11-19T12:19:32.495Z,365.62
2022-11-19T12:20:32.496Z,320.62
2022-11-19T12:21:32.511Z,320.62
2022-11-19T12:22:32.470Z,343.12
2022-11-19T12:23:32.523Z,405.00
2022-11-19T12:24:32.486Z,382.50
2022-11-19T12:25:32.471Z,450.00
2022-11-19T12:26:32.449Z,810.00
2022-11-19T12:27:32.436Z,1333.12
2022-11-19T12:28:32.523Z,1355.62
2022-11-19T12:29:32.441Z,1237.50
2022-11-19T12:30:32.457Z,1006.88
2022-11-19T12:31:33.407Z,978.75
2022-11-19T12:32:32.405Z,1023.75
2022-11-19T12:33:32.365Z,995.62
2022-11-19T12:34:32.409Z,888.75
2022-11-19T12:35:32.354Z,922.50
2022-11-19T12:36:32.397Z,900.00
2022-11-19T12:37:32.406Z,883.12
2022-11-19T12:38:32.429Z,866.25
2022-11-19T12:39:32.385Z,855.00
2022-11-19T12:40:38.983Z,742.50
2022-11-19T12:41:34.445Z,838.12
2022-11-19T12:42:32.365Z,832.50
2022-11-19T12:43:32.380Z,826.88
2022-11-19T12:44:32.349Z,832.50
2022-11-19T12:45:32.305Z,804.38
2022-11-19T12:46:32.302Z,798.75
2022-11-19T12:47:32.301Z,787.50
2022-11-19T12:48:32.319Z,781.88
2022-11-19T12:49:32.325Z,770.62
2022-11-19T12:50:32.297Z,770.62
2022-11-19T12:51:32.268Z,770.62
2022-11-19T12:52:32.267Z,753.75
2022-11-19T12:53:32.297Z,742.50
2022-11-19T12:54:35.359Z,736.88
2022-11-19T12:55:32.260Z,736.88
2022-11-19T12:56:32.258Z,742.50
2022-11-19T12:57:32.256Z,731.25